Aviation Digital Data Service (ADDS)

Output produced by METARs form (1418 UTC 31 August 2016)
found at http://aviationweather.gov/adds/metars/
 
KBPT 311126Z 3112/0112 01006KT P6SM SCT250 
     TEMPO 3112/3113 5SM BR 
     FM311500 03009KT P6SM FEW035 
     FM010100 01006KT P6SM SCT060